createdAt,value
2022-09-17T00:03:16.259Z,79.34
2022-09-17T00:07:18.265Z,79.24
2022-09-17T00:11:32.499Z,79.20
2022-09-17T00:15:43.230Z,79.36
2022-09-17T00:19:45.157Z,79.45
2022-09-17T00:23:47.204Z,79.58
2022-09-17T00:27:49.141Z,79.56
2022-09-17T00:31:51.260Z,79.63
2022-09-17T00:36:01.778Z,79.39
2022-09-17T00:40:04.531Z,79.56
2022-09-17T00:44:39.473Z,79.75
2022-09-17T00:48:41.444Z,79.78
2022-09-17T00:52:47.910Z,79.91
2022-09-17T00:56:51.816Z,79.94
2022-09-17T01:00:53.858Z,79.91
2022-09-17T01:04:55.900Z,79.91
2022-09-17T01:09:17.424Z,79.97
2022-09-17T01:13:39.585Z,79.96
2022-09-17T01:17:44.167Z,80.30
2022-09-17T01:21:52.936Z,80.24
2022-09-17T01:26:16.051Z,80.31
2022-09-17T01:30:22.192Z,80.19
2022-09-17T01:34:41.699Z,80.27
2022-09-17T01:39:04.984Z,80.40
2022-09-17T01:43:09.894Z,80.54
2022-09-17T01:47:21.207Z,80.48
2022-09-17T01:51:25.294Z,80.37
2022-09-17T01:55:33.162Z,80.34
2022-09-17T01:59:43.507Z,80.52
2022-09-17T02:04:09.127Z,80.48
2022-09-17T02:08:21.199Z,80.54
2022-09-17T02:12:30.968Z,80.64
2022-09-17T02:16:35.939Z,80.50
2022-09-17T02:20:56.599Z,80.43
2022-09-17T02:24:58.425Z,80.58
2022-09-17T02:29:08.828Z,80.81
2022-09-17T02:33:14.873Z,80.97
2022-09-17T02:37:16.967Z,81.16
2022-09-17T02:41:31.327Z,81.27
2022-09-17T02:45:48.617Z,81.23
2022-09-17T02:50:14.389Z,81.17
2022-09-17T02:54:42.133Z,81.15
2022-09-17T02:58:53.230Z,81.35
2022-09-17T03:03:12.205Z,81.66
2022-09-17T03:07:14.505Z,81.68
2022-09-17T03:11:16.477Z,81.10
2022-09-17T03:15:18.346Z,80.74
2022-09-17T03:19:20.227Z,80.63
2022-09-17T03:23:22.167Z,80.94
2022-09-17T03:27:24.062Z,81.38
2022-09-17T03:31:26.036Z,81.81
2022-09-17T03:35:28.056Z,81.96
2022-09-17T03:39:30.068Z,82.14
2022-09-17T03:43:32.048Z,81.93
2022-09-17T03:47:33.930Z,81.75
2022-09-17T03:51:35.932Z,81.94
2022-09-17T03:55:38.880Z,82.11
2022-09-17T03:59:40.781Z,81.93
2022-09-17T04:03:42.927Z,81.86
2022-09-17T04:07:45.184Z,81.83
2022-09-17T04:11:47.078Z,81.89
2022-09-17T04:15:49.267Z,82.23
2022-09-17T04:19:51.336Z,82.26
2022-09-17T04:23:53.258Z,82.34
2022-09-17T04:27:56.708Z,82.16
2022-09-17T04:31:58.727Z,82.24
2022-09-17T04:36:00.751Z,82.23
2022-09-17T04:40:07.710Z,82.41
2022-09-17T04:44:10.201Z,82.60
2022-09-17T04:48:12.409Z,82.85
2022-09-17T04:52:14.920Z,82.88
2022-09-17T04:56:16.828Z,82.88
2022-09-17T05:00:20.792Z,82.82
2022-09-17T05:04:22.721Z,82.89
2022-09-17T05:08:24.964Z,82.69
2022-09-17T05:12:32.415Z,82.94
2022-09-17T05:16:36.531Z,83.30
2022-09-17T05:20:38.715Z,83.10
2022-09-17T05:24:40.675Z,83.31
2022-09-17T05:28:42.594Z,83.23
2022-09-17T05:32:44.813Z,83.19
2022-09-17T05:36:46.805Z,83.46
2022-09-17T05:40:48.697Z,83.49
2022-09-17T05:44:50.731Z,83.35
2022-09-17T05:48:56.690Z,83.34
2022-09-17T05:53:11.941Z,83.43
2022-09-17T05:57:15.542Z,83.29
2022-09-17T06:01:17.502Z,83.05
2022-09-17T06:05:19.381Z,83.16
2022-09-17T06:09:21.954Z,83.17
2022-09-17T06:13:23.818Z,83.15
2022-09-17T06:17:25.752Z,83.37
2022-09-17T06:21:27.694Z,83.38
2022-09-17T06:25:29.784Z,83.42
2022-09-17T06:29:31.735Z,83.39
2022-09-17T06:33:34.332Z,83.32
2022-09-17T06:37:39.809Z,83.19
2022-09-17T06:41:42.825Z,83.33
2022-09-17T06:45:50.697Z,83.43
2022-09-17T06:49:54.135Z,83.34
2022-09-17T06:53:56.111Z,83.42
2022-09-17T06:57:59.608Z,83.33
2022-09-17T07:02:01.591Z,82.92
2022-09-17T07:06:04.947Z,82.68
2022-09-17T07:10:07.549Z,82.31
2022-09-17T07:14:09.512Z,82.24
2022-09-17T07:18:11.596Z,82.41
2022-09-17T07:22:13.719Z,81.67
2022-09-17T07:26:16.476Z,81.07
2022-09-17T07:30:19.553Z,80.63
2022-09-17T07:34:21.634Z,80.66
2022-09-17T07:38:25.036Z,80.24
2022-09-17T07:42:27.218Z,79.60
2022-09-17T07:46:29.719Z,77.25
2022-09-17T07:50:33.186Z,77.62
2022-09-17T07:54:38.421Z,76.84
2022-09-17T07:58:40.472Z,75.79
2022-09-17T08:02:42.769Z,75.49
2022-09-17T08:06:47.876Z,74.53
2022-09-17T08:10:51.401Z,74.17
2022-09-17T08:14:53.316Z,73.74
2022-09-17T08:18:57.188Z,74.28
2022-09-17T08:23:00.765Z,75.02
2022-09-17T08:27:02.955Z,74.94
2022-09-17T08:31:07.968Z,75.08
2022-09-17T08:35:11.448Z,74.76
2022-09-17T08:39:13.728Z,74.05
2022-09-17T08:43:19.163Z,73.13
2022-09-17T08:47:33.116Z,72.60
2022-09-17T08:51:47.023Z,72.19
2022-09-17T08:56:21.455Z,72.33
2022-09-17T09:00:24.441Z,72.08
2022-09-17T09:04:58.383Z,72.17
2022-09-17T09:09:12.882Z,72.40
2022-09-17T09:13:18.167Z,72.61
2022-09-17T09:17:25.582Z,72.73
2022-09-17T09:21:45.122Z,72.89
2022-09-17T09:26:15.057Z,73.07
2022-09-17T09:30:23.110Z,73.97
2022-09-17T09:34:28.441Z,73.72
2022-09-17T09:38:40.539Z,73.84
2022-09-17T09:42:45.773Z,72.87
2022-09-17T09:47:27.087Z,73.24
2022-09-17T09:51:31.658Z,73.17
2022-09-17T09:55:58.112Z,73.22
2022-09-17T10:00:38.481Z,73.68
2022-09-17T10:04:40.562Z,73.75
2022-09-17T10:09:02.387Z,73.27
2022-09-17T10:13:14.399Z,73.21
2022-09-17T10:17:24.609Z,73.33
2022-09-17T10:21:36.984Z,73.29
2022-09-17T10:25:45.356Z,73.40
2022-09-17T10:29:54.724Z,72.51
2022-09-17T10:34:00.950Z,72.80
2022-09-17T10:38:03.587Z,73.37
2022-09-17T10:42:13.933Z,73.68
2022-09-17T10:46:34.843Z,73.56
2022-09-17T10:50:37.665Z,73.30
2022-09-17T10:54:48.991Z,73.19
2022-09-17T10:59:29.790Z,72.86
2022-09-17T11:03:50.632Z,72.79
2022-09-17T11:08:44.478Z,72.04
2022-09-17T11:12:56.721Z,71.69
2022-09-17T11:16:58.903Z,72.21
2022-09-17T11:21:21.540Z,71.31
2022-09-17T11:25:33.844Z,69.73
2022-09-17T11:29:39.262Z,69.99
2022-09-17T11:34:05.836Z,69.52
2022-09-17T11:38:21.643Z,69.66
2022-09-17T11:42:41.953Z,70.66
2022-09-17T11:47:11.509Z,71.98
2022-09-17T11:51:33.315Z,72.99
2022-09-17T11:56:24.010Z,73.51
2022-09-17T12:00:37.634Z,74.09
2022-09-17T12:04:46.462Z,74.26
2022-09-17T12:09:15.275Z,74.62
2022-09-17T12:13:26.280Z,74.89
2022-09-17T12:17:41.286Z,75.07
2022-09-17T12:21:58.225Z,75.22
2022-09-17T12:26:06.363Z,75.45
2022-09-17T12:30:13.185Z,75.58
2022-09-17T12:34:18.126Z,75.55
2022-09-17T12:38:35.285Z,75.46
2022-09-17T12:43:09.949Z,75.43
2022-09-17T12:47:33.201Z,75.50
2022-09-17T12:51:53.800Z,75.57
2022-09-17T12:56:05.036Z,75.77
2022-09-17T13:00:21.205Z,75.71
2022-09-17T13:04:56.873Z,75.82
2022-09-17T13:09:08.801Z,76.15
2022-09-17T13:13:13.541Z,76.56
2022-09-17T13:17:15.390Z,76.68
2022-09-17T13:22:05.055Z,76.95
2022-09-17T13:26:08.683Z,77.13
2022-09-17T13:30:12.903Z,77.18
2022-09-17T13:34:17.794Z,77.09
2022-09-17T13:38:23.925Z,77.28
2022-09-17T13:42:30.016Z,77.45
2022-09-17T13:46:33.843Z,77.36
2022-09-17T13:50:35.779Z,77.62
2022-09-17T13:54:42.059Z,77.78
2022-09-17T13:58:44.012Z,78.03
2022-09-17T14:02:46.000Z,77.92
2022-09-17T14:06:59.465Z,77.86
2022-09-17T14:11:26.111Z,77.86
2022-09-17T14:15:40.286Z,77.67
2022-09-17T14:19:51.502Z,77.72
2022-09-17T14:24:02.215Z,77.80
2022-09-17T14:28:31.885Z,77.78
2022-09-17T14:33:01.811Z,77.56
2022-09-17T14:37:04.513Z,77.52
2022-09-17T14:41:15.432Z,77.50
2022-09-17T14:45:40.917Z,77.29
2022-09-17T14:49:43.203Z,77.19
2022-09-17T14:53:47.038Z,77.16
2022-09-17T14:58:04.718Z,77.04
2022-09-17T15:02:29.760Z,76.76
2022-09-17T15:06:31.865Z,76.25
2022-09-17T15:10:45.679Z,76.16
2022-09-17T15:14:47.997Z,76.41
2022-09-17T15:18:55.878Z,76.33
2022-09-17T15:23:15.757Z,76.48
2022-09-17T15:27:29.849Z,76.25
2022-09-17T15:31:32.171Z,76.44
2022-09-17T15:35:34.870Z,76.47
2022-09-17T15:39:42.549Z,76.65
2022-09-17T15:43:46.492Z,76.83
2022-09-17T15:47:55.008Z,76.98
2022-09-17T15:52:33.613Z,76.93
2022-09-17T15:56:38.596Z,76.95
2022-09-17T16:00:40.492Z,76.75
2022-09-17T16:04:42.407Z,76.81
2022-09-17T16:08:55.824Z,76.71
2022-09-17T16:12:57.726Z,76.89
2022-09-17T16:17:08.973Z,76.90
2022-09-17T16:21:12.457Z,76.89
2022-09-17T16:25:15.148Z,77.25
2022-09-17T16:29:18.660Z,77.61
2022-09-17T16:33:20.746Z,77.80
2022-09-17T16:37:22.741Z,77.88
2022-09-17T16:41:24.942Z,77.93
2022-09-17T16:45:29.081Z,78.01
2022-09-17T16:49:31.652Z,77.99
2022-09-17T16:53:34.330Z,77.97
2022-09-17T16:57:36.281Z,78.10
2022-09-17T17:01:38.552Z,78.22
2022-09-17T17:05:40.935Z,78.20
2022-09-17T17:09:43.012Z,78.13
2022-09-17T17:13:45.108Z,78.14
2022-09-17T17:17:47.964Z,78.19
2022-09-17T17:21:52.425Z,77.91
2022-09-17T17:25:54.517Z,78.19
2022-09-17T17:29:56.444Z,78.52
2022-09-17T17:33:58.343Z,78.56
2022-09-17T17:38:00.296Z,78.82
2022-09-17T17:42:02.226Z,78.88
2022-09-17T17:46:09.468Z,79.10
2022-09-17T17:50:11.726Z,79.12
2022-09-17T17:54:13.906Z,79.11
2022-09-17T17:58:15.890Z,79.04
2022-09-17T18:02:18.071Z,79.05
2022-09-17T18:06:21.061Z,78.99
2022-09-17T18:10:25.977Z,79.20
2022-09-17T18:14:28.172Z,79.34
2022-09-17T18:18:45.009Z,79.50
2022-09-17T18:22:47.601Z,79.45
2022-09-17T18:26:49.530Z,79.37
2022-09-17T18:30:51.750Z,79.43
2022-09-17T18:34:53.647Z,79.53
2022-09-17T18:39:11.064Z,79.56
2022-09-17T18:43:23.650Z,79.47
2022-09-17T18:47:25.629Z,79.38
2022-09-17T18:51:28.505Z,79.04
2022-09-17T18:55:30.654Z,79.28
2022-09-17T18:59:32.751Z,79.64
2022-09-17T19:03:34.779Z,79.43
2022-09-17T19:07:36.771Z,79.93
2022-09-17T19:11:38.778Z,79.75
2022-09-17T19:15:40.803Z,79.74
2022-09-17T19:19:42.761Z,79.59
2022-09-17T19:23:50.735Z,79.18
2022-09-17T19:28:00.923Z,79.22
2022-09-17T19:32:02.873Z,79.12
2022-09-17T19:36:09.929Z,79.26
2022-09-17T19:40:15.553Z,79.30
2022-09-17T19:44:17.658Z,79.76
2022-09-17T19:48:24.557Z,80.21
2022-09-17T19:52:27.354Z,80.34
2022-09-17T19:56:29.324Z,80.21
2022-09-17T20:00:31.342Z,79.70
2022-09-17T20:04:34.112Z,79.88
2022-09-17T20:08:41.594Z,79.87
2022-09-17T20:12:45.758Z,79.56
2022-09-17T20:16:49.731Z,79.51
2022-09-17T20:20:51.687Z,79.67
2022-09-17T20:24:53.703Z,79.86
2022-09-17T20:28:55.838Z,80.21
2022-09-17T20:32:57.713Z,80.07
2022-09-17T20:37:12.593Z,79.97
2022-09-17T20:41:16.205Z,80.39
2022-09-17T20:45:18.233Z,80.54
2022-09-17T20:49:20.253Z,80.77
2022-09-17T20:53:22.515Z,81.04
2022-09-17T20:57:24.956Z,81.50
2022-09-17T21:01:34.753Z,81.28
2022-09-17T21:05:38.626Z,81.53
2022-09-17T21:09:41.633Z,81.92
2022-09-17T21:13:44.158Z,82.28
2022-09-17T21:17:47.873Z,82.64
2022-09-17T21:21:51.251Z,82.92
2022-09-17T21:26:00.862Z,82.78
2022-09-17T21:30:05.964Z,82.49
2022-09-17T21:34:12.068Z,82.54
2022-09-17T21:38:14.190Z,82.39
2022-09-17T21:42:16.114Z,81.84
2022-09-17T21:46:27.129Z,81.58
2022-09-17T21:50:29.080Z,81.87
2022-09-17T21:54:31.077Z,82.78
2022-09-17T21:58:34.145Z,82.84
2022-09-17T22:02:39.069Z,82.48
2022-09-17T22:06:42.507Z,82.42
2022-09-17T22:10:44.438Z,82.49
2022-09-17T22:14:46.464Z,82.78
2022-09-17T22:18:50.716Z,82.55
2022-09-17T22:22:52.786Z,82.97
2022-09-17T22:26:57.669Z,83.30
2022-09-17T22:31:03.234Z,83.04
2022-09-17T22:35:07.518Z,83.17
2022-09-17T22:39:10.153Z,83.11
2022-09-17T22:43:12.782Z,82.74
2022-09-17T22:47:14.700Z,82.33
2022-09-17T22:51:16.906Z,82.59
2022-09-17T22:55:18.849Z,82.75
2022-09-17T22:59:21.518Z,82.62
2022-09-17T23:03:26.920Z,83.27
2022-09-17T23:07:28.866Z,83.59
2022-09-17T23:11:36.680Z,83.18
2022-09-17T23:15:39.007Z,83.17
2022-09-17T23:19:41.054Z,83.20
2022-09-17T23:23:47.044Z,83.64
2022-09-17T23:27:49.017Z,83.82
2022-09-17T23:31:51.208Z,83.85
2022-09-17T23:35:53.115Z,83.86
2022-09-17T23:39:55.135Z,84.01
2022-09-17T23:43:59.958Z,84.44
2022-09-17T23:48:02.027Z,84.76
2022-09-17T23:52:04.281Z,84.78
2022-09-17T23:56:14.220Z,84.27
